Aviation Digital Data Service (ADDS)

Output produced by METARs form (1906 UTC 24 April 2017)
found at http://bcaws.aviationweather.gov/adds/metars/
 
METAR text: KPAO 241847Z 29009KT 10SM BKN025 OVC075 16/10 A3010
Conditions at: KPAO (PALO ALTO , CA, US) observed 1847 UTC 24 April 2017
Temperature: 16.0°C (61°F)
Dewpoint: 10.0°C (50°F) [RH = 68%]
Pressure (altimeter): 30.10 inches Hg (1019.4 mb)
Winds: from the WNW (290 degrees) at 10 MPH (9 knots; 4.7 m/s)
Visibility: 10 or more miles (16+ km)
Ceiling: 2500 feet AGL
Clouds: broken clouds at 2500 feet AGL
overcast cloud deck at 7500 feet AGL
Weather: no significant weather observed at this time